createdAt,value
2023-10-02T00:01:59.700Z,83.51
2023-10-02T00:04:28.072Z,83.45
2023-10-02T00:07:08.009Z,83.49
2023-10-02T00:09:37.126Z,83.51
2023-10-02T00:12:13.787Z,83.36
2023-10-02T00:14:43.456Z,83.29
2023-10-02T00:17:15.956Z,83.29
2023-10-02T00:19:58.441Z,83.34
2023-10-02T00:22:45.142Z,83.26
2023-10-02T00:28:31.793Z,83.39
2023-10-02T00:30:59.895Z,83.22
2023-10-02T00:33:29.357Z,83.39
2023-10-02T00:35:57.904Z,83.64
2023-10-02T00:38:25.990Z,83.82
2023-10-02T00:40:53.815Z,84.09
2023-10-02T00:43:37.082Z,84.27
2023-10-02T00:46:05.200Z,84.34
2023-10-02T00:48:34.946Z,84.50
2023-10-02T00:51:08.021Z,84.62
2023-10-02T00:53:57.796Z,84.69
2023-10-02T00:56:26.225Z,84.73
2023-10-02T00:58:58.869Z,84.82
2023-10-02T01:01:27.920Z,84.98
2023-10-02T01:04:13.872Z,85.17
2023-10-02T01:07:06.867Z,85.23
2023-10-02T01:09:35.695Z,85.39
2023-10-02T01:12:04.116Z,85.65
2023-10-02T01:15:01.303Z,85.86
2023-10-02T01:17:30.216Z,86.04
2023-10-02T01:20:02.756Z,86.13
2023-10-02T01:22:44.695Z,86.08
2023-10-02T01:25:18.215Z,86.03
2023-10-02T01:27:49.304Z,86.02
2023-10-02T01:30:25.873Z,85.94
2023-10-02T01:33:13.501Z,86.08
2023-10-02T01:35:50.168Z,86.20
2023-10-02T01:38:39.004Z,86.32
2023-10-02T01:41:09.957Z,86.53
2023-10-02T01:43:44.568Z,86.63
2023-10-02T01:46:19.859Z,86.66
2023-10-02T01:48:54.064Z,86.62
2023-10-02T01:51:29.636Z,86.58
2023-10-02T01:54:00.251Z,86.63
2023-10-02T01:56:30.950Z,86.72
2023-10-02T01:59:11.383Z,86.74
2023-10-02T02:01:58.744Z,86.87
2023-10-02T02:04:29.752Z,86.89
2023-10-02T02:06:59.602Z,86.82
2023-10-02T02:09:32.805Z,86.92
2023-10-02T02:12:09.544Z,87.06
2023-10-02T02:15:04.108Z,87.13
2023-10-02T02:17:35.414Z,87.15
2023-10-02T02:20:12.788Z,87.14
2023-10-02T02:22:41.031Z,87.08
2023-10-02T02:25:09.318Z,87.02
2023-10-02T02:27:38.055Z,86.96
2023-10-02T02:30:11.776Z,86.91
2023-10-02T02:32:46.373Z,86.90
2023-10-02T02:35:19.254Z,86.94
2023-10-02T02:37:47.208Z,87.25
2023-10-02T02:40:24.076Z,87.91
2023-10-02T02:42:55.771Z,87.61
2023-10-02T02:45:32.379Z,87.58
2023-10-02T02:48:07.500Z,87.66
2023-10-02T02:50:43.666Z,87.68
2023-10-02T02:53:24.554Z,87.77
2023-10-02T02:56:24.054Z,87.80
2023-10-02T02:58:57.596Z,87.74
2023-10-02T03:01:26.657Z,87.63
2023-10-02T03:03:57.783Z,87.67
2023-10-02T03:06:26.163Z,87.58
2023-10-02T03:08:54.580Z,87.56
2023-10-02T03:11:24.531Z,87.51
2023-10-02T03:13:52.806Z,87.49
2023-10-02T03:16:30.807Z,87.36
2023-10-02T03:19:04.685Z,87.36
2023-10-02T03:21:32.809Z,87.08
2023-10-02T03:24:01.523Z,87.20
2023-10-02T03:26:35.410Z,87.37
2023-10-02T03:29:12.797Z,87.49
2023-10-02T03:31:52.084Z,87.39
2023-10-02T03:34:32.375Z,87.18
2023-10-02T03:37:09.923Z,87.08
2023-10-02T03:39:58.512Z,87.13
2023-10-02T03:42:37.650Z,87.07
2023-10-02T03:45:06.637Z,87.04
2023-10-02T03:47:35.682Z,86.99
2023-10-02T03:50:11.694Z,87.28
2023-10-02T03:52:42.550Z,87.21
2023-10-02T03:55:19.412Z,87.44
2023-10-02T03:57:52.371Z,87.29
2023-10-02T04:00:44.511Z,87.14
2023-10-02T04:03:13.015Z,87.13
2023-10-02T04:05:44.794Z,87.31
2023-10-02T04:08:23.653Z,87.49
2023-10-02T04:10:57.959Z,87.51
2023-10-02T04:13:34.040Z,87.44
2023-10-02T04:16:22.942Z,87.39
2023-10-02T04:19:00.256Z,87.44
2023-10-02T04:21:34.550Z,87.55
2023-10-02T04:24:06.662Z,87.52
2023-10-02T04:26:35.157Z,87.43
2023-10-02T04:29:16.720Z,87.32
2023-10-02T04:31:46.526Z,87.42
2023-10-02T04:34:31.111Z,87.53
2023-10-02T04:36:59.261Z,87.82
2023-10-02T04:39:32.811Z,87.77
2023-10-02T04:42:21.138Z,87.59
2023-10-02T04:44:59.576Z,87.45
2023-10-02T04:47:29.032Z,87.13
2023-10-02T04:50:05.652Z,87.06
2023-10-02T04:52:58.486Z,87.28
2023-10-02T04:55:29.503Z,87.59
2023-10-02T04:58:05.896Z,88.27
2023-10-02T05:00:34.264Z,89.51
2023-10-02T05:03:20.232Z,89.29
2023-10-02T05:05:50.891Z,89.51
2023-10-02T05:08:20.750Z,89.21
2023-10-02T05:11:06.058Z,89.09
2023-10-02T05:13:54.760Z,88.94
2023-10-02T05:16:40.411Z,88.86
2023-10-02T05:19:10.171Z,88.94
2023-10-02T05:21:50.793Z,89.31
2023-10-02T05:24:19.965Z,89.23
2023-10-02T05:26:48.739Z,89.24
2023-10-02T05:29:38.214Z,89.08
2023-10-02T05:32:17.419Z,88.67
2023-10-02T05:35:00.156Z,88.23
2023-10-02T05:37:35.275Z,88.23
2023-10-02T05:40:35.740Z,88.17
2023-10-02T05:43:06.601Z,87.79
2023-10-02T05:45:40.230Z,87.37
2023-10-02T05:48:10.086Z,87.17
2023-10-02T05:50:42.033Z,87.01
2023-10-02T05:53:13.262Z,86.91
2023-10-02T05:56:00.099Z,86.69
2023-10-02T05:58:34.151Z,86.32
2023-10-02T06:01:08.251Z,86.24
2023-10-02T06:03:38.643Z,86.14
2023-10-02T06:06:19.808Z,85.93
2023-10-02T06:09:03.110Z,85.80
2023-10-02T06:11:35.371Z,85.75
2023-10-02T06:14:11.549Z,85.67
2023-10-02T06:16:42.568Z,85.48
2023-10-02T06:19:15.278Z,85.27
2023-10-02T06:22:01.938Z,85.09
2023-10-02T06:24:30.117Z,85.14
2023-10-02T06:26:59.278Z,84.86
2023-10-02T06:29:41.753Z,84.88
2023-10-02T06:32:23.942Z,84.73
2023-10-02T06:34:59.440Z,84.68
2023-10-02T06:37:38.146Z,84.58
2023-10-02T06:40:16.430Z,85.41
2023-10-02T06:42:50.962Z,85.26
2023-10-02T06:45:22.088Z,84.77
2023-10-02T06:47:50.324Z,84.84
2023-10-02T06:50:37.337Z,84.88
2023-10-02T06:53:07.911Z,84.35
2023-10-02T06:55:36.177Z,83.87
2023-10-02T06:58:04.286Z,84.25
2023-10-02T07:00:52.142Z,84.43
2023-10-02T07:03:20.108Z,83.99
2023-10-02T07:05:51.917Z,83.25
2023-10-02T07:08:22.631Z,83.15
2023-10-02T07:10:51.831Z,83.05
2023-10-02T07:13:21.420Z,83.09
2023-10-02T07:16:01.561Z,82.98
2023-10-02T07:18:46.732Z,83.16
2023-10-02T07:21:18.303Z,82.87
2023-10-02T07:23:46.664Z,82.58
2023-10-02T07:26:21.186Z,82.69
2023-10-02T07:28:52.791Z,82.63
2023-10-02T07:31:22.743Z,82.03
2023-10-02T07:33:56.913Z,81.49
2023-10-02T07:36:28.470Z,81.47
2023-10-02T07:38:56.786Z,81.35
2023-10-02T07:41:29.669Z,81.43
2023-10-02T07:44:09.083Z,81.12
2023-10-02T07:46:38.249Z,81.20
2023-10-02T07:49:07.254Z,80.42
2023-10-02T07:51:38.119Z,80.20
2023-10-02T07:54:09.268Z,80.32
2023-10-02T07:56:37.486Z,80.19
2023-10-02T07:59:09.090Z,78.96
2023-10-02T08:01:37.552Z,78.20
2023-10-02T08:04:07.426Z,77.55
2023-10-02T08:06:38.346Z,77.05
2023-10-02T08:09:29.936Z,77.25
2023-10-02T08:11:59.758Z,77.00
2023-10-02T08:14:39.531Z,76.78
2023-10-02T08:17:29.118Z,76.23
2023-10-02T08:20:00.480Z,75.16
2023-10-02T08:22:45.734Z,74.71
2023-10-02T08:25:15.820Z,74.61
2023-10-02T08:27:46.029Z,74.04
2023-10-02T08:30:30.084Z,73.35
2023-10-02T08:33:09.979Z,73.75
2023-10-02T08:35:47.384Z,73.52
2023-10-02T08:38:25.818Z,73.91
2023-10-02T08:40:59.304Z,73.10
2023-10-02T08:43:43.270Z,72.98
2023-10-02T08:46:23.181Z,72.99
2023-10-02T08:48:58.457Z,72.35
2023-10-02T08:51:37.474Z,71.51
2023-10-02T08:54:07.372Z,71.47
2023-10-02T08:56:46.057Z,71.31
2023-10-02T08:59:28.597Z,70.87
2023-10-02T09:02:10.073Z,69.41
2023-10-02T09:04:38.556Z,69.09
2023-10-02T09:07:22.297Z,69.66
2023-10-02T09:10:05.874Z,68.63
2023-10-02T09:12:52.696Z,69.10
2023-10-02T09:15:32.754Z,68.56
2023-10-02T09:18:18.794Z,67.97
2023-10-02T09:21:14.069Z,68.38
2023-10-02T09:23:51.289Z,68.08
2023-10-02T09:26:34.155Z,67.82
2023-10-02T09:29:06.279Z,67.64
2023-10-02T09:31:36.204Z,66.88
2023-10-02T09:34:18.699Z,65.88
2023-10-02T09:37:48.828Z,64.00
2023-10-02T09:40:07.563Z,62.75
2023-10-02T09:42:37.744Z,62.59
2023-10-02T09:45:10.750Z,61.97
2023-10-02T09:47:51.284Z,60.45
2023-10-02T09:50:31.478Z,60.38
2023-10-02T09:53:03.685Z,59.61
2023-10-02T09:55:49.020Z,58.77
2023-10-02T09:58:29.868Z,59.09
2023-10-02T10:01:28.096Z,57.89
2023-10-02T10:03:58.137Z,56.45
2023-10-02T10:06:29.772Z,56.43
2023-10-02T10:09:16.609Z,56.19
2023-10-02T10:11:44.538Z,54.61
2023-10-02T10:14:46.270Z,54.56
2023-10-02T10:17:23.381Z,52.53
2023-10-02T10:20:10.916Z,51.54
2023-10-02T10:22:51.376Z,50.48
2023-10-02T10:25:22.589Z,49.70
2023-10-02T10:28:06.031Z,49.24
2023-10-02T10:30:40.402Z,47.84
2023-10-02T10:33:11.805Z,47.57
2023-10-02T10:35:53.293Z,47.10
2023-10-02T10:38:30.730Z,45.59
2023-10-02T10:41:11.468Z,44.50
2023-10-02T10:43:57.363Z,44.28
2023-10-02T10:46:29.163Z,43.87
2023-10-02T10:49:09.613Z,43.12
2023-10-02T10:51:40.061Z,42.74
2023-10-02T10:54:57.148Z,41.57
2023-10-02T10:57:27.115Z,41.54
2023-10-02T11:00:27.390Z,41.28
2023-10-02T11:02:59.216Z,39.55
2023-10-02T11:05:28.053Z,38.95
2023-10-02T11:08:00.653Z,36.22
2023-10-02T11:10:32.328Z,35.45
2023-10-02T11:13:12.822Z,33.03
2023-10-02T11:15:46.753Z,33.01
2023-10-02T11:18:24.963Z,32.97
2023-10-02T11:21:01.684Z,34.22
2023-10-02T11:23:40.231Z,35.50
2023-10-02T11:26:15.121Z,36.11
2023-10-02T11:28:56.361Z,35.06
2023-10-02T11:31:45.376Z,35.59
2023-10-02T11:36:54.037Z,36.21
2023-10-02T11:45:50.326Z,33.99
2023-10-02T11:48:18.496Z,32.50
2023-10-02T11:50:48.250Z,32.95
2023-10-02T11:53:16.903Z,34.12
2023-10-02T11:55:45.144Z,33.69
2023-10-02T11:58:15.957Z,34.06
2023-10-02T12:00:46.533Z,35.23
2023-10-02T12:03:17.544Z,36.26
2023-10-02T12:05:47.770Z,36.55
2023-10-02T12:08:21.912Z,36.31
2023-10-02T12:10:55.463Z,35.97
2023-10-02T12:13:23.873Z,36.53
2023-10-02T12:15:53.810Z,35.26
2023-10-02T12:18:22.864Z,34.61
2023-10-02T12:20:50.981Z,34.59
2023-10-02T12:23:20.756Z,34.52
2023-10-02T12:25:49.690Z,33.49
2023-10-02T12:28:20.410Z,33.51
2023-10-02T12:30:50.123Z,33.64
2023-10-02T12:33:33.587Z,33.63
2023-10-02T12:36:21.486Z,33.47
2023-10-02T12:38:52.003Z,33.84
2023-10-02T12:41:29.102Z,36.80
2023-10-02T12:43:57.961Z,37.36
2023-10-02T12:46:32.968Z,36.99
2023-10-02T12:49:02.580Z,36.34
2023-10-02T12:51:32.572Z,35.98
2023-10-02T12:54:00.504Z,35.23
2023-10-02T12:56:28.879Z,35.66
2023-10-02T12:58:57.323Z,36.29
2023-10-02T13:01:28.706Z,37.07
2023-10-02T13:04:00.945Z,36.32
2023-10-02T13:06:31.083Z,36.09
2023-10-02T13:09:25.767Z,35.99
2023-10-02T13:11:56.720Z,35.82
2023-10-02T13:14:24.855Z,36.59
2023-10-02T13:16:53.930Z,36.15
2023-10-02T13:19:25.136Z,35.66
2023-10-02T13:21:55.162Z,35.82
2023-10-02T13:24:25.680Z,35.60
2023-10-02T13:26:55.076Z,35.63
2023-10-02T13:29:25.641Z,36.89
2023-10-02T13:31:54.103Z,36.69
2023-10-02T13:34:22.534Z,37.02
2023-10-02T13:36:50.775Z,36.70
2023-10-02T13:39:19.708Z,36.77
2023-10-02T13:41:48.544Z,36.33
2023-10-02T13:44:19.049Z,36.80
2023-10-02T13:46:50.211Z,37.74
2023-10-02T13:49:22.803Z,38.54
2023-10-02T13:51:52.337Z,39.61
2023-10-02T13:54:21.456Z,40.17
2023-10-02T13:56:54.168Z,41.65
2023-10-02T13:59:22.791Z,43.42
2023-10-02T14:01:51.030Z,43.48
2023-10-02T14:04:20.672Z,41.96
2023-10-02T14:06:50.344Z,42.29
2023-10-02T14:09:22.138Z,42.61
2023-10-02T14:11:52.477Z,41.95
2023-10-02T14:14:21.940Z,41.33
2023-10-02T14:16:53.712Z,41.71
2023-10-02T14:19:23.538Z,42.36
2023-10-02T14:21:53.063Z,43.69
2023-10-02T14:24:21.240Z,44.03
2023-10-02T14:26:51.707Z,44.44
2023-10-02T14:29:20.297Z,44.88
2023-10-02T14:31:48.856Z,45.17
2023-10-02T14:34:17.092Z,45.83
2023-10-02T14:36:45.446Z,46.59
2023-10-02T14:39:16.942Z,47.04
2023-10-02T14:41:45.183Z,47.51
2023-10-02T14:44:16.224Z,48.07
2023-10-02T14:46:45.004Z,48.35
2023-10-02T14:49:13.046Z,48.57
2023-10-02T14:51:41.609Z,48.39
2023-10-02T14:54:09.595Z,48.68
2023-10-02T14:56:38.810Z,49.16
2023-10-02T14:59:07.746Z,49.58
2023-10-02T15:01:36.866Z,50.07
2023-10-02T15:04:05.182Z,50.47
2023-10-02T15:06:34.477Z,51.14
2023-10-02T15:09:04.490Z,51.19
2023-10-02T15:11:37.602Z,51.39
2023-10-02T15:14:05.893Z,51.36
2023-10-02T15:16:38.170Z,51.19
2023-10-02T15:19:07.519Z,51.29
2023-10-02T15:21:36.562Z,51.21
2023-10-02T15:24:05.393Z,51.36
2023-10-02T15:26:34.240Z,51.63
2023-10-02T15:29:05.434Z,51.83
2023-10-02T15:31:33.719Z,51.99
2023-10-02T15:34:04.120Z,52.24
2023-10-02T15:36:32.177Z,52.66
2023-10-02T15:39:04.111Z,53.08
2023-10-02T15:41:33.742Z,53.50
2023-10-02T15:52:37.440Z,54.11
2023-10-02T15:55:11.590Z,54.23
2023-10-02T15:57:41.565Z,54.46
2023-10-02T16:00:14.518Z,54.83
2023-10-02T16:02:46.969Z,55.14
2023-10-02T16:05:14.992Z,55.81
2023-10-02T16:07:44.052Z,56.36
2023-10-02T16:10:14.680Z,56.16
2023-10-02T16:12:46.995Z,56.47
2023-10-02T16:15:16.769Z,56.68
2023-10-02T16:17:49.374Z,56.49
2023-10-02T16:20:22.933Z,57.06
2023-10-02T16:22:55.248Z,57.23
2023-10-02T16:25:23.554Z,56.83
2023-10-02T16:27:53.720Z,57.38
2023-10-02T16:30:28.158Z,57.78
2023-10-02T16:32:56.818Z,58.15
2023-10-02T16:35:32.971Z,58.03
2023-10-02T16:38:05.208Z,58.21
2023-10-02T16:40:34.700Z,58.63
2023-10-02T16:43:05.800Z,59.50
2023-10-02T16:45:34.577Z,59.68
2023-10-02T16:48:06.953Z,59.27
2023-10-02T16:50:36.747Z,59.34
2023-10-02T16:53:04.932Z,59.48
2023-10-02T16:55:33.107Z,59.64
2023-10-02T16:58:01.952Z,59.70
2023-10-02T17:00:29.978Z,59.76
2023-10-02T17:02:59.167Z,59.82
2023-10-02T17:05:29.531Z,59.99
2023-10-02T17:07:59.648Z,60.12
2023-10-02T17:10:27.676Z,60.12
2023-10-02T17:13:01.132Z,60.04
2023-10-02T17:15:34.535Z,60.07
2023-10-02T17:18:03.011Z,60.20
2023-10-02T17:20:31.063Z,60.18
2023-10-02T17:23:02.382Z,60.31
2023-10-02T17:25:30.794Z,60.35
2023-10-02T17:28:02.564Z,60.46
2023-10-02T17:30:33.275Z,60.55
2023-10-02T17:33:03.236Z,60.63
2023-10-02T17:35:31.617Z,60.66
2023-10-02T17:38:00.574Z,60.71
2023-10-02T17:40:28.616Z,61.02
2023-10-02T17:42:56.967Z,60.94
2023-10-02T17:45:25.375Z,61.06
2023-10-02T17:47:53.514Z,61.05
2023-10-02T17:50:22.740Z,61.19
2023-10-02T17:52:50.731Z,61.63
2023-10-02T17:55:18.847Z,62.13
2023-10-02T17:57:48.707Z,62.24
2023-10-02T18:00:19.303Z,62.49
2023-10-02T18:02:48.760Z,62.62
2023-10-02T18:05:18.070Z,62.73
2023-10-02T18:07:46.546Z,63.11
2023-10-02T18:10:16.400Z,63.52
2023-10-02T18:12:44.700Z,64.06
2023-10-02T18:15:15.934Z,64.19
2023-10-02T18:17:45.279Z,64.96
2023-10-02T18:20:14.138Z,64.96
2023-10-02T18:22:45.142Z,65.23
2023-10-02T18:25:13.251Z,65.50
2023-10-02T18:27:41.186Z,65.77
2023-10-02T18:30:10.758Z,65.97
2023-10-02T18:32:39.398Z,66.33
2023-10-02T18:35:11.027Z,66.45
2023-10-02T18:37:39.527Z,66.31
2023-10-02T18:40:10.011Z,66.14
2023-10-02T18:42:38.874Z,66.34
2023-10-02T18:45:07.776Z,66.61
2023-10-02T18:47:36.311Z,66.64
2023-10-02T18:50:07.404Z,66.55
2023-10-02T18:52:38.416Z,66.50
2023-10-02T18:55:08.917Z,66.60
2023-10-02T18:57:40.034Z,66.69
2023-10-02T19:00:12.724Z,66.82
2023-10-02T19:02:41.010Z,67.05
2023-10-02T19:05:09.687Z,67.28
2023-10-02T19:07:39.120Z,67.49
2023-10-02T19:10:07.866Z,67.44
2023-10-02T19:12:36.010Z,67.72
2023-10-02T19:15:04.773Z,67.88
2023-10-02T19:17:33.896Z,68.09
2023-10-02T19:20:06.812Z,68.21
2023-10-02T19:22:36.842Z,68.47
2023-10-02T19:25:05.401Z,68.74
2023-10-02T19:27:33.490Z,68.93
2023-10-02T19:30:01.284Z,69.17
2023-10-02T19:32:29.701Z,69.30
2023-10-02T19:34:57.639Z,69.51
2023-10-02T19:37:25.674Z,69.67
2023-10-02T19:39:54.748Z,69.84
2023-10-02T19:42:22.718Z,69.99
2023-10-02T19:44:50.723Z,70.42
2023-10-02T19:47:18.622Z,70.85
2023-10-02T19:49:46.928Z,71.17
2023-10-02T19:52:14.920Z,71.27
2023-10-02T19:54:44.185Z,71.45
2023-10-02T19:57:12.210Z,71.61
2023-10-02T19:59:40.229Z,71.89
2023-10-02T20:02:08.251Z,72.26
2023-10-02T20:04:37.222Z,72.72
2023-10-02T20:07:05.124Z,73.03
2023-10-02T20:09:34.809Z,73.19
2023-10-02T20:12:02.795Z,73.27
2023-10-02T20:14:30.837Z,73.46
2023-10-02T20:16:59.208Z,73.65
2023-10-02T20:19:28.147Z,73.85
2023-10-02T20:21:56.079Z,73.96
2023-10-02T20:24:23.977Z,74.22
2023-10-02T20:26:52.231Z,74.30
2023-10-02T20:29:20.377Z,74.49
2023-10-02T20:31:49.989Z,74.91
2023-10-02T20:34:30.719Z,75.52
2023-10-02T20:37:05.590Z,75.68
2023-10-02T20:39:33.590Z,76.02
2023-10-02T20:42:02.385Z,75.95
2023-10-02T20:44:33.032Z,75.75
2023-10-02T20:47:12.273Z,75.88
2023-10-02T20:49:44.314Z,76.31
2023-10-02T20:52:12.762Z,76.71
2023-10-02T20:54:40.645Z,77.25
2023-10-02T20:57:09.406Z,77.16
2023-10-02T20:59:38.081Z,76.93
2023-10-02T21:02:06.137Z,77.07
2023-10-02T21:04:34.502Z,77.05
2023-10-02T21:07:02.511Z,77.02
2023-10-02T21:09:31.023Z,77.07
2023-10-02T21:11:58.817Z,77.45
2023-10-02T21:14:26.749Z,77.66
2023-10-02T21:16:54.596Z,77.32
2023-10-02T21:19:22.451Z,77.41
2023-10-02T21:21:53.292Z,77.71
2023-10-02T21:24:24.664Z,77.93
2023-10-02T21:26:52.692Z,77.95
2023-10-02T21:29:20.639Z,78.06
2023-10-02T21:31:48.445Z,77.95
2023-10-02T21:34:17.030Z,77.87
2023-10-02T21:36:44.946Z,77.82
2023-10-02T21:39:15.695Z,78.24
2023-10-02T21:41:45.778Z,78.02
2023-10-02T21:44:13.804Z,77.86
2023-10-02T21:46:41.795Z,77.84
2023-10-02T21:49:09.619Z,78.01
2023-10-02T21:51:37.613Z,78.54
2023-10-02T21:54:06.962Z,78.36
2023-10-02T21:56:36.235Z,78.34
2023-10-02T21:59:04.701Z,78.54
2023-10-02T22:01:33.604Z,78.64
2023-10-02T22:04:02.274Z,78.68
2023-10-02T22:06:30.830Z,78.89
2023-10-02T22:08:58.993Z,78.96
2023-10-02T22:11:27.073Z,78.97
2023-10-02T22:13:54.963Z,78.83
2023-10-02T22:16:28.107Z,78.95
2023-10-02T22:18:55.910Z,78.85
2023-10-02T22:21:25.658Z,78.86
2023-10-02T22:23:54.348Z,78.95
2023-10-02T22:26:22.306Z,79.28
2023-10-02T22:28:50.343Z,79.04
2023-10-02T22:31:18.914Z,79.51
2023-10-02T22:33:48.385Z,80.02
2023-10-02T22:36:17.659Z,80.31
2023-10-02T22:38:46.351Z,80.31
2023-10-02T22:41:14.939Z,80.64
2023-10-02T22:43:42.955Z,80.63
2023-10-02T22:46:12.641Z,81.06
2023-10-02T22:48:40.800Z,81.25
2023-10-02T22:51:09.323Z,81.15
2023-10-02T22:53:38.355Z,81.04
2023-10-02T22:56:06.400Z,81.22
2023-10-02T22:58:34.404Z,81.42
2023-10-02T23:01:05.546Z,81.35
2023-10-02T23:03:35.015Z,81.55
2023-10-02T23:06:07.048Z,81.63
2023-10-02T23:08:35.000Z,81.78
2023-10-02T23:11:07.907Z,81.97
2023-10-02T23:13:35.847Z,82.28
2023-10-02T23:16:03.829Z,82.73
2023-10-02T23:18:36.542Z,82.78
2023-10-02T23:21:04.725Z,82.68
2023-10-02T23:23:32.995Z,82.79
2023-10-02T23:26:00.857Z,82.84
2023-10-02T23:28:28.677Z,82.88
2023-10-02T23:30:56.716Z,83.14
2023-10-02T23:33:24.875Z,83.39
2023-10-02T23:35:54.133Z,83.38
2023-10-02T23:38:22.170Z,83.49
2023-10-02T23:40:50.004Z,83.34
2023-10-02T23:43:20.661Z,83.40
2023-10-02T23:45:52.402Z,83.42
2023-10-02T23:48:21.875Z,83.55
2023-10-02T23:50:50.714Z,83.58
2023-10-02T23:53:25.876Z,83.72
2023-10-02T23:56:04.734Z,83.85
2023-10-02T23:58:33.556Z,84.19
